Time;durP1;ratioP1;P1;durP2;ratioP2;P2;SDS_P1;SDS_P2;PMS_P1;PMS_P2;Temp;Humidity;BMP_temperature;BMP_pressure;BME280_temperature;BME280_humidity;BME280_pressure;Samples;Min_cycle;Max_cycle;Signal;HPM_P1;HPM_P2
2021/04/22 00:02:10;;;;;;;;;;;16.80;55.10;;;;;;5071650;28;19920;-72
2021/04/22 00:04:36;;;;;;;;;;;16.70;55.60;;;;;;5074913;28;20261;-71
2021/04/22 00:07:02;;;;;;;;;;;16.70;55.50;;;;;;5072465;28;19912;-73
2021/04/22 00:09:28;;;;;;;;;;;16.50;55.80;;;;;;5072569;28;20304;-72
2021/04/22 00:11:54;;;;;;;;;;;16.50;55.90;;;;;;5078762;28;19931;-71
2021/04/22 00:14:21;;;;;;;;;;;16.50;55.80;;;;;;5072462;28;20338;-70
2021/04/22 00:16:47;;;;;;;;;;;16.50;55.80;;;;;;5067220;28;19916;-70
2021/04/22 00:19:13;;;;;;;;;;;16.20;56.00;;;;;;5071993;28;19924;-71
2021/04/22 00:21:39;;;;;;;;;;;16.20;56.30;;;;;;5074220;28;20238;-71
2021/04/22 00:24:05;;;;;;;;;;;16.10;56.40;;;;;;5071220;28;19936;-71
2021/04/22 00:26:31;;;;;;;;;;;15.90;57.10;;;;;;5072429;28;19912;-71
2021/04/22 00:28:57;;;;;;;;;;;15.90;57.40;;;;;;5075143;28;19947;-70
2021/04/22 00:31:23;;;;;;;;;;;16.00;57.50;;;;;;5073674;28;19960;-70
2021/04/22 00:33:49;;;;;;;;;;;15.90;57.40;;;;;;5098018;28;19913;-71
2021/04/22 00:36:16;;;;;;;;;;;15.90;57.50;;;;;;5074183;28;19964;-71
2021/04/22 00:38:42;;;;;;;;;;;15.80;57.80;;;;;;5074217;28;19959;-70
2021/04/22 00:41:08;;;;;;;;;;;15.80;58.10;;;;;;5097489;28;19913;-71
2021/04/22 00:43:34;;;;;;;;;;;15.80;58.10;;;;;;5055728;28;19919;-70
2021/04/22 00:46:00;;;;;;;;;;;15.80;58.50;;;;;;5049875;28;20016;-71
2021/04/22 00:48:27;;;;;;;;;;;15.60;58.80;;;;;;5051704;28;19925;-71
2021/04/22 00:50:53;;;;;;;;;;;15.60;59.30;;;;;;5055456;28;20261;-71
2021/04/22 00:53:20;;;;;;;;;;;15.50;58.90;;;;;;5055729;28;19922;-72
2021/04/22 00:55:47;;;;;;;;;;;15.50;59.50;;;;;;5027278;28;19999;-72
2021/04/22 00:58:13;;;;;;;;;;;15.50;59.30;;;;;;5038655;28;19924;-72
2021/04/22 01:00:44;;;;;;;;;;;15.40;59.10;;;;;;5056465;28;19908;-74
2021/04/22 01:03:11;;;;;;;;;;;15.40;59.10;;;;;;5062014;28;19938;-73
2021/04/22 01:05:39;;;;;;;;;;;15.30;59.10;;;;;;5070946;28;19909;-73
2021/04/22 01:08:05;;;;;;;;;;;15.50;58.90;;;;;;5053754;28;19974;-71
2021/04/22 01:10:32;;;;;;;;;;;15.50;58.50;;;;;;5046349;28;20361;-72
2021/04/22 01:12:58;;;;;;;;;;;15.40;58.30;;;;;;5054836;28;19912;-71
2021/04/22 01:15:25;;;;;;;;;;;15.40;58.40;;;;;;5050252;28;19925;-72
2021/04/22 01:17:52;;;;;;;;;;;15.20;58.70;;;;;;5055497;28;19913;-71
2021/04/22 01:20:23;;;;;;;;;;;15.20;58.60;;;;;;5052644;28;19912;-71
2021/04/22 01:22:49;;;;;;;;;;;14.90;59.50;;;;;;5054377;28;19913;-69
2021/04/22 01:25:17;;;;;;;;;;;15.00;58.90;;;;;;5051688;28;20015;-71
2021/04/22 01:27:44;;;;;;;;;;;15.00;59.60;;;;;;5072757;28;19923;-70
2021/04/22 01:30:15;;;;;;;;;;;15.00;59.80;;;;;;5032732;28;19952;-70
2021/04/22 01:32:41;;;;;;;;;;;14.90;59.40;;;;;;5055537;28;19924;-69
2021/04/22 01:35:08;;;;;;;;;;;14.90;59.20;;;;;;5053719;28;19920;-70
2021/04/22 01:37:35;;;;;;;;;;;14.80;59.80;;;;;;5052969;28;20254;-70
2021/04/22 01:40:02;;;;;;;;;;;14.90;59.40;;;;;;5047106;28;20343;-69
2021/04/22 01:42:28;;;;;;;;;;;14.80;59.50;;;;;;5056836;28;19916;-69
2021/04/22 01:44:54;;;;;;;;;;;14.60;59.80;;;;;;5066770;28;19975;-70
2021/04/22 01:47:20;;;;;;;;;;;14.70;59.70;;;;;;5073403;28;19928;-70
2021/04/22 01:49:46;;;;;;;;;;;14.80;59.70;;;;;;5074287;28;19912;-71
2021/04/22 01:52:12;;;;;;;;;;;14.70;59.70;;;;;;5074510;28;19916;-70
2021/04/22 01:54:38;;;;;;;;;;;14.70;60.00;;;;;;5073046;28;20003;-69
2021/04/22 01:57:05;;;;;;;;;;;14.60;60.40;;;;;;5063718;28;19943;-72
2021/04/22 01:59:31;;;;;;;;;;;14.50;60.90;;;;;;5081917;28;19940;-72
2021/04/22 02:01:57;;;;;;;;;;;14.30;60.60;;;;;;5073997;28;19913;-72
2021/04/22 02:04:23;;;;;;;;;;;14.20;61.50;;;;;;5074211;28;19912;-72
2021/04/22 02:06:49;;;;;;;;;;;14.10;61.10;;;;;;5071365;28;19912;-72
2021/04/22 02:09:15;;;;;;;;;;;14.00;62.50;;;;;;5069383;28;19927;-70
2021/04/22 02:11:41;;;;;;;;;;;14.20;62.20;;;;;;5072713;28;20023;-71
2021/04/22 02:14:07;;;;;;;;;;;14.10;62.00;;;;;;5066443;28;20354;-70
2021/04/22 02:16:33;;;;;;;;;;;14.10;61.70;;;;;;5067221;28;19917;-70
2021/04/22 02:18:59;;;;;;;;;;;14.00;62.00;;;;;;5065179;28;20007;-72
2021/04/22 02:21:25;;;;;;;;;;;14.10;62.00;;;;;;5072559;28;20330;-71
2021/04/22 02:23:51;;;;;;;;;;;14.10;61.10;;;;;;5072876;28;19917;-71
2021/04/22 02:26:17;;;;;;;;;;;14.10;61.70;;;;;;5070311;28;19947;-71
2021/04/22 02:28:43;;;;;;;;;;;14.00;61.60;;;;;;5074411;28;20315;-71
2021/04/22 02:31:09;;;;;;;;;;;13.90;61.40;;;;;;5073314;28;19920;-71
2021/04/22 02:33:35;;;;;;;;;;;14.00;62.80;;;;;;5072064;28;19920;-70
2021/04/22 02:36:01;;;;;;;;;;;13.90;62.50;;;;;;5071694;28;19939;-70
2021/04/22 02:38:27;;;;;;;;;;;13.80;62.90;;;;;;5073361;28;19912;-71
2021/04/22 02:40:53;;;;;;;;;;;13.90;62.90;;;;;;5071288;28;20563;-71
2021/04/22 02:43:20;;;;;;;;;;;13.90;63.10;;;;;;5068673;28;19967;-71
2021/04/22 02:45:48;;;;;;;;;;;13.70;63.10;;;;;;5072030;28;19923;-71
2021/04/22 02:48:14;;;;;;;;;;;13.70;63.60;;;;;;5069525;28;19920;-71
2021/04/22 02:50:42;;;;;;;;;;;13.70;63.70;;;;;;5069187;28;20285;-71
2021/04/22 02:53:08;;;;;;;;;;;13.60;63.70;;;;;;5067817;28;19916;-71
2021/04/22 02:55:35;;;;;;;;;;;13.60;64.00;;;;;;5098014;28;19916;-71
2021/04/22 02:58:01;;;;;;;;;;;13.50;64.00;;;;;;5071212;28;20282;-70
2021/04/22 03:00:27;;;;;;;;;;;13.50;64.40;;;;;;5072608;28;20249;-70
2021/04/22 03:02:53;;;;;;;;;;;13.50;64.50;;;;;;5068839;28;19920;-73
2021/04/22 03:05:19;;;;;;;;;;;13.50;64.60;;;;;;5075225;28;19915;-74
2021/04/22 03:07:45;;;;;;;;;;;13.60;64.20;;;;;;5077463;28;19916;-70
2021/04/22 03:10:13;;;;;;;;;;;13.60;64.70;;;;;;5076292;28;19916;-71
2021/04/22 03:12:39;;;;;;;;;;;13.60;64.90;;;;;;5072265;28;19913;-71
2021/04/22 03:15:06;;;;;;;;;;;13.50;64.90;;;;;;5075794;28;19913;-71
2021/04/22 03:17:32;;;;;;;;;;;13.40;65.20;;;;;;5076256;28;19913;-71
2021/04/22 03:19:58;;;;;;;;;;;13.40;65.50;;;;;;5078223;28;19912;-70
2021/04/22 03:22:24;;;;;;;;;;;13.40;65.10;;;;;;5077019;28;20022;-70
2021/04/22 03:24:51;;;;;;;;;;;13.40;65.80;;;;;;5076935;28;19948;-70
2021/04/22 03:27:17;;;;;;;;;;;13.40;65.30;;;;;;5078448;28;20324;-70
2021/04/22 03:29:43;;;;;;;;;;;13.30;64.90;;;;;;5078644;28;20390;-70
2021/04/22 03:32:09;;;;;;;;;;;13.30;65.40;;;;;;5076708;28;20357;-70
2021/04/22 03:34:35;;;;;;;;;;;13.40;66.10;;;;;;5075094;28;20151;-68
2021/04/22 03:37:01;;;;;;;;;;;13.30;65.50;;;;;;5076596;28;19920;-71
2021/04/22 03:39:27;;;;;;;;;;;13.30;66.00;;;;;;5075861;28;20404;-70
2021/04/22 03:41:53;;;;;;;;;;;13.20;65.50;;;;;;5074945;28;20365;-71
2021/04/22 03:44:19;;;;;;;;;;;13.30;66.00;;;;;;5053081;28;19913;-70
2021/04/22 03:46:45;;;;;;;;;;;13.30;66.00;;;;;;5056213;28;19917;-70
2021/04/22 03:49:11;;;;;;;;;;;13.30;65.70;;;;;;5051571;28;20790;-70
2021/04/22 03:51:37;;;;;;;;;;;13.20;65.80;;;;;;5057839;28;19966;-71
2021/04/22 03:54:03;;;;;;;;;;;13.20;65.40;;;;;;5056248;28;19913;-70
2021/04/22 03:56:29;;;;;;;;;;;13.10;65.80;;;;;;5056717;28;19917;-71
2021/04/22 03:58:55;;;;;;;;;;;13.20;66.20;;;;;;5057840;28;20003;-70
2021/04/22 04:01:21;;;;;;;;;;;13.20;65.70;;;;;;5057254;28;19963;-70
2021/04/22 04:03:47;;;;;;;;;;;13.10;65.50;;;;;;5056554;28;20015;-71
2021/04/22 04:06:13;;;;;;;;;;;13.10;65.80;;;;;;5051981;28;19913;-72
2021/04/22 04:08:39;;;;;;;;;;;13.30;66.00;;;;;;5055669;28;19931;-72
2021/04/22 04:11:05;;;;;;;;;;;13.30;65.50;;;;;;5054514;28;20370;-70
2021/04/22 04:13:31;;;;;;;;;;;13.30;65.30;;;;;;5049519;28;20008;-70
2021/04/22 04:15:57;;;;;;;;;;;13.30;65.80;;;;;;5054895;28;19968;-69
2021/04/22 04:21:09;;;;;;;;;;;13.30;66.10;;;;;;5050747;28;19919;-70
2021/04/22 04:23:36;;;;;;;;;;;13.30;66.00;;;;;;5056694;28;19912;-70
2021/04/22 04:26:02;;;;;;;;;;;13.30;65.90;;;;;;5054886;28;20650;-71
2021/04/22 04:28:29;;;;;;;;;;;13.30;66.30;;;;;;5060139;28;20342;-72
2021/04/22 04:30:55;;;;;;;;;;;13.10;66.10;;;;;;5048087;28;19921;-70
2021/04/22 04:33:21;;;;;;;;;;;13.20;66.10;;;;;;5055965;28;20004;-70
2021/04/22 04:35:47;;;;;;;;;;;13.30;66.80;;;;;;5056403;28;20365;-69
2021/04/22 04:38:13;;;;;;;;;;;13.20;66.00;;;;;;5056057;28;20303;-69
2021/04/22 04:40:39;;;;;;;;;;;13.30;66.60;;;;;;5057399;28;19919;-69
2021/04/22 04:43:05;;;;;;;;;;;13.30;66.10;;;;;;5063033;28;20362;-69
2021/04/22 04:45:32;;;;;;;;;;;13.20;66.70;;;;;;5059442;28;19993;-69
2021/04/22 04:47:58;;;;;;;;;;;13.30;65.80;;;;;;5052686;28;20349;-70
2021/04/22 04:50:24;;;;;;;;;;;13.10;66.40;;;;;;5052524;28;20254;-69
2021/04/22 04:52:50;;;;;;;;;;;13.00;66.70;;;;;;5059671;28;20016;-69
2021/04/22 04:55:16;;;;;;;;;;;13.00;66.50;;;;;;5040941;28;19999;-70
2021/04/22 04:57:43;;;;;;;;;;;13.20;66.60;;;;;;5056806;28;20257;-71
2021/04/22 05:00:10;;;;;;;;;;;13.20;66.40;;;;;;5057730;28;19909;-71
2021/04/22 05:02:36;;;;;;;;;;;13.20;65.70;;;;;;5052768;28;20254;-70
2021/04/22 05:05:03;;;;;;;;;;;13.10;66.10;;;;;;5054241;28;19909;-71
2021/04/22 05:07:29;;;;;;;;;;;13.00;66.30;;;;;;5049269;28;20246;-71
2021/04/22 05:09:55;;;;;;;;;;;13.00;66.70;;;;;;5036577;28;19919;-70
2021/04/22 05:12:21;;;;;;;;;;;13.20;66.50;;;;;;5043989;28;20240;-70
2021/04/22 05:14:47;;;;;;;;;;;13.20;66.00;;;;;;5035633;28;19908;-70
2021/04/22 05:17:13;;;;;;;;;;;13.10;65.90;;;;;;5056196;28;19917;-70
2021/04/22 05:19:39;;;;;;;;;;;13.20;66.10;;;;;;5042816;28;19967;-70
2021/04/22 05:22:05;;;;;;;;;;;13.10;66.30;;;;;;5054500;28;19970;-70
2021/04/22 05:24:32;;;;;;;;;;;13.30;66.20;;;;;;5075465;28;19909;-71
2021/04/22 05:26:58;;;;;;;;;;;13.20;66.20;;;;;;5051647;28;19912;-70
2021/04/22 05:29:27;;;;;;;;;;;13.00;65.70;;;;;;5053118;28;19948;-70
2021/04/22 05:31:53;;;;;;;;;;;13.00;66.40;;;;;;5045092;28;19913;-70
2021/04/22 05:34:19;;;;;;;;;;;13.10;66.50;;;;;;5057197;28;19917;-70
2021/04/22 05:36:45;;;;;;;;;;;13.10;66.70;;;;;;5038221;28;19989;-73
2021/04/22 05:39:11;;;;;;;;;;;13.10;65.70;;;;;;5055467;28;19955;-71
2021/04/22 05:41:37;;;;;;;;;;;12.90;66.10;;;;;;5046200;28;19931;-72
2021/04/22 05:44:03;;;;;;;;;;;13.00;66.70;;;;;;5073751;28;20250;-70
2021/04/22 05:46:33;;;;;;;;;;;13.00;66.20;;;;;;5074854;28;19966;-70
2021/04/22 05:48:59;;;;;;;;;;;12.90;66.50;;;;;;5074137;28;19955;-70
2021/04/22 05:51:25;;;;;;;;;;;12.90;66.60;;;;;;5073831;28;19912;-70
2021/04/22 05:53:51;;;;;;;;;;;13.00;66.50;;;;;;5074921;28;19923;-71
2021/04/22 05:56:17;;;;;;;;;;;13.00;66.20;;;;;;5073708;28;19963;-70
2021/04/22 05:58:46;;;;;;;;;;;13.00;66.30;;;;;;5074108;28;19915;-70
2021/04/22 06:01:15;;;;;;;;;;;13.00;67.00;;;;;;5074580;28;20362;-70
2021/04/22 06:03:41;;;;;;;;;;;12.90;66.70;;;;;;5073930;28;19997;-70
2021/04/22 06:06:07;;;;;;;;;;;12.90;66.70;;;;;;5056304;28;20258;-70
2021/04/22 06:08:33;;;;;;;;;;;12.80;66.50;;;;;;5074501;28;19927;-70
2021/04/22 06:10:59;;;;;;;;;;;12.70;67.00;;;;;;5074609;28;19909;-70
2021/04/22 06:13:26;;;;;;;;;;;12.90;66.90;;;;;;5074782;28;19909;-70
2021/04/22 06:15:52;;;;;;;;;;;12.90;66.90;;;;;;5061046;28;20354;-70
2021/04/22 06:18:18;;;;;;;;;;;13.00;66.30;;;;;;5072052;28;19916;-70
2021/04/22 06:20:44;;;;;;;;;;;13.00;66.70;;;;;;5074583;28;19962;-70
2021/04/22 06:23:10;;;;;;;;;;;12.90;66.70;;;;;;5074397;28;19924;-70
2021/04/22 06:25:36;;;;;;;;;;;13.00;66.70;;;;;;5070853;28;20015;-70
2021/04/22 06:28:02;;;;;;;;;;;12.90;66.50;;;;;;5073409;28;20347;-70
2021/04/22 06:30:28;;;;;;;;;;;12.80;67.00;;;;;;5073232;28;19920;-70
2021/04/22 06:32:55;;;;;;;;;;;12.90;67.00;;;;;;5072697;28;19920;-69
2021/04/22 06:35:22;;;;;;;;;;;12.90;67.10;;;;;;5073682;28;19917;-70
2021/04/22 06:37:48;;;;;;;;;;;12.90;67.00;;;;;;5072445;28;20369;-70
2021/04/22 06:40:16;;;;;;;;;;;12.90;66.10;;;;;;5073608;28;19966;-70
2021/04/22 06:42:42;;;;;;;;;;;12.80;66.50;;;;;;5076249;28;19920;-70
2021/04/22 06:45:09;;;;;;;;;;;12.90;67.00;;;;;;5077836;28;19912;-70
2021/04/22 06:47:35;;;;;;;;;;;12.80;67.00;;;;;;5083830;28;19916;-71
2021/04/22 06:50:02;;;;;;;;;;;12.80;66.90;;;;;;5076493;28;19912;-70
2021/04/22 06:52:28;;;;;;;;;;;12.80;66.70;;;;;;5077113;28;19918;-70
2021/04/22 06:54:55;;;;;;;;;;;12.80;66.90;;;;;;5077929;28;20022;-70
2021/04/22 06:57:21;;;;;;;;;;;12.70;67.00;;;;;;5078294;28;19921;-70
2021/04/22 06:59:47;;;;;;;;;;;12.70;66.80;;;;;;5078104;28;19920;-70
2021/04/22 07:02:13;;;;;;;;;;;12.90;67.30;;;;;;5076223;28;19928;-70
2021/04/22 07:04:39;;;;;;;;;;;12.90;66.70;;;;;;5076006;28;19932;-70
2021/04/22 07:07:07;;;;;;;;;;;12.80;66.90;;;;;;5079214;28;19994;-71
2021/04/22 07:09:34;;;;;;;;;;;12.80;67.10;;;;;;5079230;28;19917;-71
2021/04/22 07:12:00;;;;;;;;;;;12.80;66.90;;;;;;5075622;28;19950;-70
2021/04/22 07:14:26;;;;;;;;;;;12.90;66.90;;;;;;5074489;28;19913;-70
2021/04/22 07:16:53;;;;;;;;;;;12.80;66.70;;;;;;5068926;28;19928;-70
2021/04/22 07:19:19;;;;;;;;;;;12.80;66.70;;;;;;5075761;28;19912;-70
2021/04/22 07:21:45;;;;;;;;;;;12.80;66.60;;;;;;5075401;28;20018;-70
2021/04/22 07:24:11;;;;;;;;;;;12.70;67.00;;;;;;5076310;28;20258;-70
2021/04/22 07:26:37;;;;;;;;;;;12.90;66.80;;;;;;5075019;28;19920;-70
2021/04/22 07:29:03;;;;;;;;;;;12.90;66.60;;;;;;5076492;28;19921;-69
2021/04/22 07:31:29;;;;;;;;;;;12.90;67.00;;;;;;5076815;28;19920;-70
2021/04/22 07:33:55;;;;;;;;;;;12.80;66.80;;;;;;5073451;28;19939;-70
2021/04/22 07:36:21;;;;;;;;;;;12.80;66.80;;;;;;5075323;28;19925;-69
2021/04/22 07:38:48;;;;;;;;;;;12.70;66.80;;;;;;5075569;28;19912;-70
2021/04/22 07:41:14;;;;;;;;;;;12.70;66.70;;;;;;5076124;28;19956;-70
2021/04/22 07:43:41;;;;;;;;;;;12.70;66.60;;;;;;5077352;28;19925;-69
2021/04/22 07:46:08;;;;;;;;;;;12.80;67.10;;;;;;5077433;28;20557;-69
2021/04/22 07:48:34;;;;;;;;;;;12.70;66.60;;;;;;5076792;28;20331;-70
2021/04/22 07:51:00;;;;;;;;;;;12.70;66.80;;;;;;5077222;28;19908;-69
2021/04/22 07:53:27;;;;;;;;;;;12.70;66.70;;;;;;5057044;28;19908;-69
2021/04/22 07:55:53;;;;;;;;;;;12.60;67.00;;;;;;5075888;28;19973;-69
2021/04/22 07:58:19;;;;;;;;;;;12.70;67.10;;;;;;5077640;28;20246;-69
2021/04/22 08:00:46;;;;;;;;;;;12.80;66.70;;;;;;5077044;28;19935;-69
2021/04/22 08:03:13;;;;;;;;;;;12.80;66.50;;;;;;5076863;28;20050;-69
2021/04/22 08:05:40;;;;;;;;;;;12.80;66.60;;;;;;5067151;28;20365;-69
2021/04/22 08:08:08;;;;;;;;;;;12.80;66.80;;;;;;5073243;28;20338;-70
2021/04/22 08:10:36;;;;;;;;;;;12.80;66.70;;;;;;5102087;28;19919;-70
2021/04/22 08:13:03;;;;;;;;;;;12.80;66.90;;;;;;5060975;28;19913;-70
2021/04/22 08:15:33;;;;;;;;;;;12.80;66.70;;;;;;5101714;28;19916;-70
2021/04/22 08:17:59;;;;;;;;;;;12.80;66.80;;;;;;5071696;28;19913;-70
2021/04/22 08:20:25;;;;;;;;;;;12.90;67.00;;;;;;5060037;28;19921;-70
2021/04/22 08:22:52;;;;;;;;;;;12.80;66.80;;;;;;5071048;28;19912;-70
2021/04/22 08:25:20;;;;;;;;;;;12.90;66.70;;;;;;5059997;28;20007;-70
2021/04/22 08:27:47;;;;;;;;;;;12.80;67.40;;;;;;5060743;28;20364;-70
2021/04/22 08:30:15;;;;;;;;;;;12.80;66.20;;;;;;5061568;28;19913;-70
2021/04/22 08:32:41;;;;;;;;;;;12.70;67.40;;;;;;5066476;28;19920;-70
2021/04/22 08:35:07;;;;;;;;;;;12.80;66.70;;;;;;5063927;28;19927;-70
2021/04/22 08:37:36;;;;;;;;;;;12.70;66.90;;;;;;5058909;28;20002;-70
2021/04/22 08:40:04;;;;;;;;;;;12.60;67.50;;;;;;5058147;28;19917;-70
2021/04/22 08:42:31;;;;;;;;;;;12.70;67.10;;;;;;5059768;28;19920;-70
2021/04/22 08:44:59;;;;;;;;;;;12.80;66.90;;;;;;5059372;28;19977;-70
2021/04/22 08:47:26;;;;;;;;;;;12.60;67.20;;;;;;5060592;28;19956;-70
2021/04/22 08:49:52;;;;;;;;;;;12.60;67.40;;;;;;5061106;28;19989;-70
2021/04/22 08:52:18;;;;;;;;;;;12.60;67.20;;;;;;5064744;28;19917;-70
2021/04/22 08:54:44;;;;;;;;;;;12.70;67.00;;;;;;5060518;28;19942;-69
2021/04/22 08:57:10;;;;;;;;;;;12.70;67.00;;;;;;5063987;28;19952;-70
2021/04/22 08:59:36;;;;;;;;;;;12.70;66.80;;;;;;5072340;28;20445;-70
2021/04/22 09:02:03;;;;;;;;;;;12.70;67.00;;;;;;5064904;28;20460;-70
2021/04/22 09:04:29;;;;;;;;;;;12.80;66.50;;;;;;5059003;28;20274;-70
2021/04/22 09:06:55;;;;;;;;;;;12.60;66.60;;;;;;5058168;28;20011;-69
2021/04/22 09:09:21;;;;;;;;;;;12.70;66.60;;;;;;5060299;28;20027;-70
2021/04/22 09:11:47;;;;;;;;;;;12.70;66.70;;;;;;5058990;28;21443;-70
2021/04/22 09:14:15;;;;;;;;;;;12.80;66.60;;;;;;5058350;28;20006;-71
2021/04/22 09:16:41;;;;;;;;;;;12.80;66.90;;;;;;5057734;28;19931;-71
2021/04/22 09:19:09;;;;;;;;;;;12.70;66.70;;;;;;5062946;28;19927;-70
2021/04/22 09:21:38;;;;;;;;;;;12.70;66.80;;;;;;5064821;28;19996;-70
2021/04/22 09:24:13;;;;;;;;;;;12.70;66.60;;;;;;5066927;28;19919;-70
2021/04/22 09:26:40;;;;;;;;;;;12.60;66.70;;;;;;5059151;28;19965;-70
2021/04/22 09:29:07;;;;;;;;;;;12.60;66.90;;;;;;5060118;28;19921;-70
2021/04/22 09:31:34;;;;;;;;;;;12.70;67.20;;;;;;5068381;28;20001;-70
2021/04/22 09:34:11;;;;;;;;;;;12.70;67.10;;;;;;5099441;28;19912;-70
2021/04/22 09:36:38;;;;;;;;;;;12.70;67.10;;;;;;5068787;28;19977;-70
2021/04/22 09:39:05;;;;;;;;;;;12.60;67.30;;;;;;5072902;28;19920;-70
2021/04/22 09:41:34;;;;;;;;;;;12.70;67.30;;;;;;5073921;28;19919;-70
2021/04/22 09:44:10;;;;;;;;;;;12.70;67.30;;;;;;5072424;28;19954;-70
2021/04/22 09:46:42;;;;;;;;;;;12.70;67.30;;;;;;5070473;28;19962;-70
2021/04/22 09:49:09;;;;;;;;;;;12.70;67.00;;;;;;5057704;28;19917;-70
2021/04/22 09:51:37;;;;;;;;;;;12.70;67.20;;;;;;5054498;28;19924;-70
2021/04/22 09:54:14;;;;;;;;;;;12.80;67.00;;;;;;5059491;28;19920;-70
2021/04/22 09:56:41;;;;;;;;;;;12.80;67.10;;;;;;5060784;28;19921;-70
2021/04/22 09:59:11;;;;;;;;;;;12.80;67.20;;;;;;5044723;28;19916;-70
2021/04/22 10:01:37;;;;;;;;;;;12.80;67.20;;;;;;5035249;28;19968;-70
2021/04/22 10:04:03;;;;;;;;;;;12.70;67.00;;;;;;5057590;28;19920;-70
2021/04/22 10:06:40;;;;;;;;;;;12.60;67.60;;;;;;5045924;28;20070;-70
2021/04/22 10:09:06;;;;;;;;;;;12.70;67.50;;;;;;5052866;28;19913;-70
2021/04/22 10:11:42;;;;;;;;;;;12.70;67.50;;;;;;5056320;28;19924;-70
2021/04/22 10:14:08;;;;;;;;;;;12.70;67.60;;;;;;5058788;28;19912;-70
2021/04/22 10:16:34;;;;;;;;;;;12.70;67.80;;;;;;5064794;28;20007;-70
2021/04/22 10:19:00;;;;;;;;;;;12.70;67.90;;;;;;5053713;28;19912;-70
2021/04/22 10:21:28;;;;;;;;;;;12.60;67.90;;;;;;5055192;28;19923;-70
2021/04/22 10:24:06;;;;;;;;;;;12.50;68.00;;;;;;5062882;28;19913;-70
2021/04/22 10:26:32;;;;;;;;;;;12.60;68.00;;;;;;5068394;28;19941;-70
2021/04/22 10:28:58;;;;;;;;;;;12.50;67.80;;;;;;5057646;28;19913;-70
2021/04/22 10:31:27;;;;;;;;;;;12.60;67.70;;;;;;5058770;28;20358;-70
2021/04/22 10:33:53;;;;;;;;;;;12.60;67.90;;;;;;5062971;28;20357;-70
2021/04/22 10:36:21;;;;;;;;;;;12.60;67.80;;;;;;5043748;28;20331;-70
2021/04/22 10:38:49;;;;;;;;;;;12.60;67.70;;;;;;5035887;28;19927;-70
2021/04/22 10:41:15;;;;;;;;;;;12.70;68.00;;;;;;5074154;28;20223;-70
2021/04/22 10:43:42;;;;;;;;;;;12.60;68.10;;;;;;5055085;28;19944;-70
2021/04/22 10:46:08;;;;;;;;;;;12.60;68.10;;;;;;5056902;28;19913;-71
2021/04/22 10:48:35;;;;;;;;;;;12.60;67.90;;;;;;5063245;28;19913;-70
2021/04/22 10:51:01;;;;;;;;;;;12.60;68.00;;;;;;5054622;28;19909;-70
2021/04/22 10:53:27;;;;;;;;;;;12.70;67.90;;;;;;5053661;28;19912;-71
2021/04/22 10:55:54;;;;;;;;;;;12.60;68.20;;;;;;5053261;28;19925;-70
2021/04/22 10:58:30;;;;;;;;;;;12.70;68.00;;;;;;5038022;28;19913;-70
2021/04/22 11:00:57;;;;;;;;;;;12.70;67.90;;;;;;5046310;28;20347;-70
2021/04/22 11:03:28;;;;;;;;;;;12.70;67.90;;;;;;5055855;28;20310;-70
2021/04/22 11:05:58;;;;;;;;;;;12.70;67.80;;;;;;5040102;28;20219;-70
2021/04/22 11:08:54;;;;;;;;;;;12.60;67.90;;;;;;5057925;28;19913;-70
2021/04/22 11:11:34;;;;;;;;;;;12.70;68.10;;;;;;5043707;28;20284;-71
2021/04/22 11:14:09;;;;;;;;;;;12.70;67.70;;;;;;5044467;28;19917;-70
2021/04/22 11:16:36;;;;;;;;;;;12.80;67.60;;;;;;5016765;28;19921;-71
2021/04/22 11:19:13;;;;;;;;;;;12.70;67.70;;;;;;5045450;28;19934;-71
2021/04/22 11:21:46;;;;;;;;;;;12.70;67.80;;;;;;5062884;28;20010;-71
2021/04/22 11:24:13;;;;;;;;;;;12.70;67.80;;;;;;5058190;28;19952;-70
2021/04/22 11:26:39;;;;;;;;;;;12.70;67.70;;;;;;5063863;28;20379;-70
2021/04/22 11:29:11;;;;;;;;;;;12.70;67.60;;;;;;5057104;28;20012;-70
2021/04/22 11:31:47;;;;;;;;;;;12.90;67.70;;;;;;5047057;28;19967;-70
2021/04/22 11:34:13;;;;;;;;;;;12.80;67.60;;;;;;5055082;28;20308;-70
2021/04/22 11:36:52;;;;;;;;;;;12.90;67.80;;;;;;5058010;28;19975;-70
2021/04/22 11:39:29;;;;;;;;;;;13.00;67.80;;;;;;5047658;28;19913;-70
2021/04/22 11:41:56;;;;;;;;;;;12.90;67.90;;;;;;5071785;28;19960;-70
2021/04/22 11:44:36;;;;;;;;;;;13.00;67.80;;;;;;5043598;28;20305;-70
2021/04/22 11:47:13;;;;;;;;;;;12.90;68.00;;;;;;5047846;28;19958;-70
2021/04/22 11:49:39;;;;;;;;;;;12.90;68.20;;;;;;5065747;28;19908;-70
2021/04/22 11:52:13;;;;;;;;;;;12.90;68.00;;;;;;5058092;28;19921;-70
2021/04/22 11:54:39;;;;;;;;;;;12.90;68.60;;;;;;5055954;28;20249;-70
2021/04/22 11:57:06;;;;;;;;;;;13.00;68.30;;;;;;5062665;28;20003;-70
2021/04/22 11:59:33;;;;;;;;;;;13.10;68.20;;;;;;5045610;28;19967;-70
2021/04/22 12:02:00;;;;;;;;;;;13.10;68.00;;;;;;5051647;28;20358;-71
2021/04/22 12:04:46;;;;;;;;;;;13.10;68.00;;;;;;5065476;28;19970;-70
2021/04/22 12:07:19;;;;;;;;;;;13.00;68.10;;;;;;5054552;28;19975;-70
2021/04/22 12:09:52;;;;;;;;;;;13.10;68.40;;;;;;5057515;28;20354;-70
2021/04/22 12:12:30;;;;;;;;;;;13.10;68.50;;;;;;5055511;28;19919;-70
2021/04/22 12:14:57;;;;;;;;;;;13.10;68.50;;;;;;5050215;28;20354;-70
2021/04/22 12:17:27;;;;;;;;;;;13.10;68.10;;;;;;5039669;28;20004;-70
2021/04/22 12:19:55;;;;;;;;;;;13.20;68.00;;;;;;5049968;28;20390;-70
2021/04/22 12:22:28;;;;;;;;;;;13.30;68.00;;;;;;5062213;28;19974;-70
2021/04/22 12:24:55;;;;;;;;;;;13.30;67.60;;;;;;5060660;28;20261;-70
2021/04/22 12:27:29;;;;;;;;;;;13.20;67.70;;;;;;5062966;28;19913;-70
2021/04/22 12:29:55;;;;;;;;;;;13.20;68.20;;;;;;5065029;28;20370;-70
2021/04/22 12:32:21;;;;;;;;;;;13.30;67.60;;;;;;5067208;28;19919;-70
2021/04/22 12:34:47;;;;;;;;;;;13.00;68.40;;;;;;5051156;28;19913;-70
2021/04/22 12:37:14;;;;;;;;;;;13.20;68.30;;;;;;5055679;28;19917;-70
2021/04/22 12:39:41;;;;;;;;;;;13.10;68.70;;;;;;5066511;28;19913;-70
2021/04/22 12:42:12;;;;;;;;;;;13.40;67.90;;;;;;5048490;28;19932;-70
2021/04/22 12:44:51;;;;;;;;;;;13.30;67.90;;;;;;5050613;28;19913;-70
2021/04/22 12:47:18;;;;;;;;;;;13.40;67.30;;;;;;5055288;28;19909;-70
2021/04/22 12:49:51;;;;;;;;;;;13.30;68.00;;;;;;5054867;28;19913;-71
2021/04/22 12:52:21;;;;;;;;;;;13.20;67.80;;;;;;5055396;28;19908;-70
2021/04/22 12:55:05;;;;;;;;;;;13.10;68.90;;;;;;5053854;28;19912;-71
2021/04/22 12:57:31;;;;;;;;;;;13.30;68.40;;;;;;5038189;28;20046;-70
2021/04/22 12:59:57;;;;;;;;;;;13.30;67.90;;;;;;5046818;28;19956;-70
2021/04/22 13:02:23;;;;;;;;;;;13.20;68.10;;;;;;5054357;28;20114;-70
2021/04/22 13:05:00;;;;;;;;;;;13.20;68.70;;;;;;5055408;28;20022;-70
2021/04/22 13:07:30;;;;;;;;;;;13.40;67.80;;;;;;5051754;28;19924;-70
2021/04/22 13:09:56;;;;;;;;;;;13.40;68.00;;;;;;5052082;28;19909;-70
2021/04/22 13:12:22;;;;;;;;;;;13.40;67.70;;;;;;5051826;28;19920;-70
2021/04/22 13:14:49;;;;;;;;;;;13.30;68.00;;;;;;5054911;28;20258;-71
2021/04/22 13:17:15;;;;;;;;;;;13.20;68.40;;;;;;5054826;28;20058;-70
2021/04/22 13:19:42;;;;;;;;;;;13.20;69.00;;;;;;5053629;28;20342;-71
2021/04/22 13:22:12;;;;;;;;;;;13.40;68.20;;;;;;5055705;28;19956;-71
2021/04/22 13:24:40;;;;;;;;;;;13.50;67.50;;;;;;5054069;28;19948;-70
2021/04/22 13:27:08;;;;;;;;;;;13.50;67.60;;;;;;5053339;28;19940;-70
2021/04/22 13:29:42;;;;;;;;;;;13.60;67.10;;;;;;5053660;28;19913;-70
2021/04/22 13:32:08;;;;;;;;;;;13.60;66.90;;;;;;5053774;28;20366;-69
2021/04/22 13:34:45;;;;;;;;;;;13.70;66.40;;;;;;5029226;28;19948;-69
2021/04/22 13:37:12;;;;;;;;;;;13.60;66.60;;;;;;5053300;28;20224;-69
2021/04/22 13:39:39;;;;;;;;;;;13.50;67.30;;;;;;5053816;28;20350;-70
2021/04/22 13:42:06;;;;;;;;;;;13.60;67.00;;;;;;5064981;28;20015;-70
2021/04/22 13:44:36;;;;;;;;;;;13.40;67.90;;;;;;5073922;28;19912;-69
2021/04/22 13:47:04;;;;;;;;;;;13.50;67.20;;;;;;5074528;28;20192;-70
2021/04/22 13:49:31;;;;;;;;;;;13.60;67.20;;;;;;5073564;28;20358;-70
2021/04/22 13:52:03;;;;;;;;;;;13.70;66.50;;;;;;5075191;28;19995;-70
2021/04/22 13:54:30;;;;;;;;;;;13.70;66.40;;;;;;5074023;28;19912;-70
2021/04/22 13:57:07;;;;;;;;;;;13.50;67.30;;;;;;5074965;28;19924;-70
2021/04/22 13:59:33;;;;;;;;;;;13.70;66.50;;;;;;5106035;28;20007;-70
2021/04/22 14:02:00;;;;;;;;;;;13.70;66.30;;;;;;5073718;28;19913;-70
2021/04/22 14:04:26;;;;;;;;;;;13.60;67.00;;;;;;5073711;28;20278;-70
2021/04/22 14:06:52;;;;;;;;;;;13.60;67.40;;;;;;5073617;28;19959;-70
2021/04/22 14:09:22;;;;;;;;;;;13.60;67.60;;;;;;5072971;28;19939;-70
2021/04/22 14:11:48;;;;;;;;;;;13.60;67.40;;;;;;5069955;28;19946;-70
2021/04/22 14:14:15;;;;;;;;;;;13.60;67.20;;;;;;5064379;28;19936;-70
2021/04/22 14:16:42;;;;;;;;;;;13.80;66.80;;;;;;5073287;28;19917;-70
2021/04/22 14:19:22;;;;;;;;;;;13.90;65.90;;;;;;5074380;28;20011;-70
2021/04/22 14:21:48;;;;;;;;;;;13.90;66.00;;;;;;5072705;28;20287;-69